Time;durP1;ratioP1;P1;durP2;ratioP2;P2;SDS_P1;SDS_P2;PMS_P1;PMS_P2;Temp;Humidity;BMP_temperature;BMP_pressure;BME280_temperature;BME280_humidity;BME280_pressure;Samples;Min_cycle;Max_cycle;Signal;HPM_P1;HPM_P2
2022/10/18 00:00:55;;;;;;;10.10;7.50;;;;;;;;;;5051004;28;20525;-63
2022/10/18 00:03:22;;;;;;;8.93;7.13;;;;;;;;;;5048355;28;20058;-63
2022/10/18 00:05:48;;;;;;;10.52;6.93;;;;;;;;;;5049690;28;20025;-63
2022/10/18 00:08:15;;;;;;;8.80;7.15;;;;;;;;;;5047407;28;20032;-63
2022/10/18 00:10:41;;;;;;;11.55;7.63;;;;;;;;;;5048716;28;20057;-63
2022/10/18 00:13:07;;;;;;;9.98;7.65;;;;;;;;;;5050700;28;20049;-64
2022/10/18 00:15:32;;;;;;;9.13;6.93;;;;;;;;;;5051149;28;20029;-66
2022/10/18 00:17:58;;;;;;;10.90;6.85;;;;;;;;;;5052193;28;20028;-65
2022/10/18 00:20:23;;;;;;;12.77;7.20;;;;;;;;;;5051452;28;20119;-63
2022/10/18 00:22:49;;;;;;;7.95;6.82;;;;;;;;;;5051086;28;20087;-63
2022/10/18 00:25:15;;;;;;;8.77;7.22;;;;;;;;;;5050732;28;20017;-65
2022/10/18 00:27:40;;;;;;;8.93;7.35;;;;;;;;;;5052047;28;20036;-66
2022/10/18 00:30:06;;;;;;;9.30;7.38;;;;;;;;;;5052332;28;20064;-64
2022/10/18 00:32:38;;;;;;;11.80;6.82;;;;;;;;;;5052300;28;20016;-63
2022/10/18 00:35:05;;;;;;;8.57;6.63;;;;;;;;;;5052021;28;20496;-63
2022/10/18 00:37:31;;;;;;;10.93;7.00;;;;;;;;;;5052245;28;20029;-64
2022/10/18 00:39:57;;;;;;;9.13;7.03;;;;;;;;;;5052116;28;20025;-64
2022/10/18 00:42:25;;;;;;;12.15;7.40;;;;;;;;;;5051943;28;20028;-64
2022/10/18 00:44:51;;;;;;;9.82;7.32;;;;;;;;;;5050694;28;20017;-64
2022/10/18 00:47:17;;;;;;;10.65;6.72;;;;;;;;;;5051794;28;20021;-65
2022/10/18 00:49:46;;;;;;;8.93;6.75;;;;;;;;;;5055602;28;20032;-63
2022/10/18 00:52:45;;;;;;;10.00;6.97;;;;;;;;;;5055475;28;20025;-64
2022/10/18 00:55:11;;;;;;;8.82;7.10;;;;;;;;;;5055785;28;20028;-64
2022/10/18 00:57:40;;;;;;;9.68;7.07;;;;;;;;;;5055436;28;20390;-64
2022/10/18 01:00:08;;;;;;;10.38;7.47;;;;;;;;;;5055374;28;20124;-64
2022/10/18 01:02:38;;;;;;;8.75;7.10;;;;;;;;;;5055328;28;20388;-64
2022/10/18 01:05:04;;;;;;;10.13;7.20;;;;;;;;;;5055902;28;20100;-64
2022/10/18 01:07:35;;;;;;;8.75;7.10;;;;;;;;;;5055167;28;20502;-64
2022/10/18 01:10:23;;;;;;;11.82;7.15;;;;;;;;;;5055305;28;20025;-64
2022/10/18 01:13:07;;;;;;;11.52;7.07;;;;;;;;;;5055162;28;20078;-64
2022/10/18 01:15:59;;;;;;;10.90;7.13;;;;;;;;;;5055146;28;20098;-68
2022/10/18 01:18:33;;;;;;;9.82;7.22;;;;;;;;;;5051957;28;20033;-64
2022/10/18 01:21:24;;;;;;;9.13;7.45;;;;;;;;;;5055076;28;20021;-64
2022/10/18 01:24:10;;;;;;;8.80;7.15;;;;;;;;;;5055271;28;20052;-64
2022/10/18 01:26:48;;;;;;;12.27;7.13;;;;;;;;;;5055184;28;20401;-64
2022/10/18 01:29:41;;;;;;;11.75;7.35;;;;;;;;;;5055105;28;20021;-64
2022/10/18 01:32:13;;;;;;;10.00;6.97;;;;;;;;;;5055128;28;20170;-67
2022/10/18 01:34:41;;;;;;;11.35;7.13;;;;;;;;;;5054842;28;20029;-64
2022/10/18 01:37:10;;;;;;;11.48;8.00;;;;;;;;;;5055035;28;20036;-68
2022/10/18 01:39:39;;;;;;;10.48;7.50;;;;;;;;;;5054930;28;20033;-64
2022/10/18 01:42:08;;;;;;;9.15;6.90;;;;;;;;;;5054981;28;20029;-64
2022/10/18 01:44:35;;;;;;;11.45;7.60;;;;;;;;;;5054590;28;20025;-65
2022/10/18 01:47:02;;;;;;;10.20;7.22;;;;;;;;;;5054843;28;20112;-64
2022/10/18 01:49:27;;;;;;;10.68;7.07;;;;;;;;;;5054843;28;20017;-63
2022/10/18 01:51:53;;;;;;;11.48;7.18;;;;;;;;;;5054540;28;20431;-64
2022/10/18 01:54:24;;;;;;;12.27;7.53;;;;;;;;;;5054756;28;20052;-63
2022/10/18 01:57:32;;;;;;;9.77;7.65;;;;;;;;;;5054417;28;20059;-63
2022/10/18 02:00:00;;;;;;;11.90;7.28;;;;;;;;;;5051643;28;20029;-63
2022/10/18 02:02:49;;;;;;;11.27;7.00;;;;;;;;;;5054365;28;20028;-63
2022/10/18 02:05:42;;;;;;;12.10;7.50;;;;;;;;;;5054222;28;20056;-63
2022/10/18 02:08:17;;;;;;;11.07;7.38;;;;;;;;;;5054168;28;20036;-63
2022/10/18 02:10:46;;;;;;;11.98;7.80;;;;;;;;;;5054096;28;20033;-63
2022/10/18 02:13:14;;;;;;;8.88;6.72;;;;;;;;;;5054371;28;20029;-63
2022/10/18 02:15:44;;;;;;;8.68;7.07;;;;;;;;;;5052905;28;20036;-63
2022/10/18 02:18:21;;;;;;;12.35;6.93;;;;;;;;;;5054139;28;20472;-63
2022/10/18 02:20:47;;;;;;;10.38;7.57;;;;;;;;;;5054197;28;20072;-63
2022/10/18 02:23:15;;;;;;;11.98;7.30;;;;;;;;;;5054282;28;20032;-63
2022/10/18 02:25:41;;;;;;;11.23;7.45;;;;;;;;;;5054095;28;20128;-63
2022/10/18 02:28:06;;;;;;;12.10;7.28;;;;;;;;;;5053877;28;20516;-64
2022/10/18 02:31:12;;;;;;;8.38;7.20;;;;;;;;;;5053715;28;20029;-67
2022/10/18 02:33:57;;;;;;;10.90;7.38;;;;;;;;;;5012699;28;20508;-64
2022/10/18 02:36:34;;;;;;;9.10;7.30;;;;;;;;;;5053611;28;20037;-64
2022/10/18 02:39:05;;;;;;;8.98;6.90;;;;;;;;;;5053790;28;20025;-64
2022/10/18 02:41:31;;;;;;;8.93;7.20;;;;;;;;;;5053598;28;20044;-63
2022/10/18 02:43:56;;;;;;;10.10;7.28;;;;;;;;;;5053419;28;20075;-65
2022/10/18 02:46:22;;;;;;;10.38;6.75;;;;;;;;;;5053372;28;20033;-66
2022/10/18 02:48:47;;;;;;;9.82;7.22;;;;;;;;;;5053432;28;20021;-65
2022/10/18 02:51:13;;;;;;;10.40;7.43;;;;;;;;;;5053178;28;20476;-64
2022/10/18 02:53:38;;;;;;;10.50;7.90;;;;;;;;;;5053592;28;20036;-64
2022/10/18 02:56:04;;;;;;;9.50;7.20;;;;;;;;;;5053307;28;20460;-64
2022/10/18 02:58:30;;;;;;;8.38;7.03;;;;;;;;;;5053071;28;20045;-68
2022/10/18 03:00:55;;;;;;;11.05;7.40;;;;;;;;;;5053107;28;20492;-64
2022/10/18 03:03:20;;;;;;;13.35;8.35;;;;;;;;;;5053109;28;20100;-64
2022/10/18 03:05:50;;;;;;;9.93;7.50;;;;;;;;;;5053124;28;20112;-65
2022/10/18 03:08:16;;;;;;;10.35;7.95;;;;;;;;;;5053065;28;20024;-64
2022/10/18 03:10:45;;;;;;;9.77;7.10;;;;;;;;;;5051161;28;20037;-64
2022/10/18 03:13:10;;;;;;;10.45;7.63;;;;;;;;;;5053271;28;20025;-63
2022/10/18 03:15:36;;;;;;;12.43;8.00;;;;;;;;;;5052927;28;20029;-63
2022/10/18 03:18:01;;;;;;;9.45;7.10;;;;;;;;;;5052842;28;20028;-64
2022/10/18 03:20:27;;;;;;;8.13;7.18;;;;;;;;;;5053017;28;20073;-63
2022/10/18 03:22:52;;;;;;;12.15;7.13;;;;;;;;;;5051504;28;20043;-65
2022/10/18 03:25:17;;;;;;;10.25;6.95;;;;;;;;;;5053040;28;20489;-64
2022/10/18 03:27:43;;;;;;;8.73;6.88;;;;;;;;;;5052797;28;20025;-65
2022/10/18 03:30:10;;;;;;;8.77;7.00;;;;;;;;;;5052690;28;20033;-64
2022/10/18 03:32:36;;;;;;;10.00;6.93;;;;;;;;;;5052851;28;20385;-64
2022/10/18 03:35:03;;;;;;;9.75;7.15;;;;;;;;;;5052921;28;20028;-71
2022/10/18 03:37:29;;;;;;;10.48;7.32;;;;;;;;;;5052493;28;20051;-66
2022/10/18 03:39:54;;;;;;;10.23;6.45;;;;;;;;;;5052791;28;20064;-64
2022/10/18 03:42:20;;;;;;;9.13;6.95;;;;;;;;;;5052552;28;20112;-64
2022/10/18 03:44:45;;;;;;;8.82;6.88;;;;;;;;;;5052553;28;20473;-64
2022/10/18 03:47:11;;;;;;;9.15;7.20;;;;;;;;;;5052706;28;20467;-64
2022/10/18 03:49:36;;;;;;;10.13;7.63;;;;;;;;;;5052521;28;20025;-64
2022/10/18 03:52:02;;;;;;;9.75;7.15;;;;;;;;;;5052402;28;20037;-64
2022/10/18 03:54:27;;;;;;;9.70;7.53;;;;;;;;;;5052687;28;20118;-64
2022/10/18 03:56:52;;;;;;;10.02;7.30;;;;;;;;;;5052136;28;20106;-65
2022/10/18 03:59:18;;;;;;;9.52;7.07;;;;;;;;;;5052259;28;20036;-65
2022/10/18 04:01:43;;;;;;;10.52;7.68;;;;;;;;;;5052252;28;20095;-64
2022/10/18 04:04:09;;;;;;;8.35;6.63;;;;;;;;;;5052459;28;20028;-64
2022/10/18 04:06:34;;;;;;;9.10;6.82;;;;;;;;;;5052198;28;20025;-64
2022/10/18 04:09:00;;;;;;;11.07;7.03;;;;;;;;;;5052195;28;20068;-64
2022/10/18 04:11:25;;;;;;;8.85;7.57;;;;;;;;;;5052176;28;20049;-64
2022/10/18 04:13:51;;;;;;;8.95;7.10;;;;;;;;;;5052482;28;20381;-64
2022/10/18 04:16:16;;;;;;;10.00;7.05;;;;;;;;;;5052127;28;20107;-64
2022/10/18 04:18:41;;;;;;;12.38;7.07;;;;;;;;;;5052102;28;20033;-64
2022/10/18 04:21:07;;;;;;;12.20;7.03;;;;;;;;;;5052075;28;20025;-65
2022/10/18 04:23:32;;;;;;;10.07;7.30;;;;;;;;;;5055804;28;20112;-64
2022/10/18 04:25:58;;;;;;;16.33;7.82;;;;;;;;;;5056042;28;20033;-66
2022/10/18 04:28:23;;;;;;;8.85;7.18;;;;;;;;;;5056114;28;20029;-66
2022/10/18 04:30:50;;;;;;;9.93;7.10;;;;;;;;;;5055937;28;20388;-66
2022/10/18 04:33:16;;;;;;;11.07;7.45;;;;;;;;;;5054757;28;20078;-63
2022/10/18 04:35:41;;;;;;;9.02;7.18;;;;;;;;;;5056218;28;20029;-65
2022/10/18 04:38:08;;;;;;;9.05;7.25;;;;;;;;;;5055936;28;20469;-70
2022/10/18 04:40:33;;;;;;;9.57;6.93;;;;;;;;;;5056059;28;20047;-62
2022/10/18 04:42:59;;;;;;;9.60;7.10;;;;;;;;;;5055733;28;20017;-63
2022/10/18 04:45:24;;;;;;;10.80;7.13;;;;;;;;;;5055813;28;20057;-64
2022/10/18 04:47:49;;;;;;;9.77;7.25;;;;;;;;;;5055993;28;20083;-64
2022/10/18 04:50:15;;;;;;;11.80;7.28;;;;;;;;;;5055997;28;20449;-63
2022/10/18 04:52:40;;;;;;;9.88;7.28;;;;;;;;;;5055831;28;20476;-66
2022/10/18 04:55:06;;;;;;;10.65;6.70;;;;;;;;;;5055880;28;20051;-64
2022/10/18 04:57:31;;;;;;;9.70;7.20;;;;;;;;;;5055246;28;20512;-64
2022/10/18 04:59:57;;;;;;;12.15;7.60;;;;;;;;;;5055668;28;20120;-66
2022/10/18 05:02:22;;;;;;;10.32;7.47;;;;;;;;;;5055451;28;20032;-68
2022/10/18 05:04:48;;;;;;;13.00;7.55;;;;;;;;;;5055319;28;20029;-69
2022/10/18 05:07:13;;;;;;;10.10;8.00;;;;;;;;;;5055347;28;20028;-71
2022/10/18 05:09:38;;;;;;;10.60;7.07;;;;;;;;;;5055501;28;20021;-63
2022/10/18 05:12:04;;;;;;;10.23;7.40;;;;;;;;;;5055410;28;20021;-65
2022/10/18 05:14:29;;;;;;;9.60;7.32;;;;;;;;;;5055075;28;20178;-65
2022/10/18 05:16:55;;;;;;;10.57;7.07;;;;;;;;;;5055333;28;20044;-64
2022/10/18 05:19:20;;;;;;;8.88;7.60;;;;;;;;;;5054995;28;20048;-64
2022/10/18 05:21:45;;;;;;;10.60;7.15;;;;;;;;;;5055278;28;20056;-63
2022/10/18 05:24:11;;;;;;;10.10;7.53;;;;;;;;;;5055001;28;20360;-64
2022/10/18 05:26:36;;;;;;;10.85;7.45;;;;;;;;;;5049404;28;20461;-69
2022/10/18 05:29:02;;;;;;;11.50;7.55;;;;;;;;;;5054779;28;20029;-65
2022/10/18 05:31:28;;;;;;;11.10;7.90;;;;;;;;;;5050587;28;20056;-63
2022/10/18 05:33:53;;;;;;;10.60;7.10;;;;;;;;;;5050661;28;20555;-63
2022/10/18 05:36:19;;;;;;;13.32;8.02;;;;;;;;;;5046898;28;20020;-63
2022/10/18 05:38:46;;;;;;;9.52;7.65;;;;;;;;;;5048975;28;20025;-63
2022/10/18 05:41:12;;;;;;;11.93;7.53;;;;;;;;;;5052073;28;20025;-67
2022/10/18 05:43:38;;;;;;;12.10;7.68;;;;;;;;;;5054529;28;20388;-63
2022/10/18 05:46:06;;;;;;;10.68;7.68;;;;;;;;;;5054416;28;20029;-63
2022/10/18 05:48:31;;;;;;;12.00;8.20;;;;;;;;;;5048427;28;20085;-66
2022/10/18 05:50:58;;;;;;;11.13;7.78;;;;;;;;;;5034649;28;20053;-66
2022/10/18 05:53:24;;;;;;;12.63;7.72;;;;;;;;;;5033574;28;20021;-69
2022/10/18 05:55:49;;;;;;;10.52;7.80;;;;;;;;;;5032305;28;20496;-65
2022/10/18 05:58:15;;;;;;;9.35;7.30;;;;;;;;;;5034116;28;20041;-67
2022/10/18 06:00:40;;;;;;;12.35;8.13;;;;;;;;;;5034636;28;20040;-64
2022/10/18 06:03:06;;;;;;;9.30;7.13;;;;;;;;;;5034655;28;20486;-70
2022/10/18 06:05:31;;;;;;;10.95;7.88;;;;;;;;;;5034546;28;20025;-65
2022/10/18 06:07:57;;;;;;;13.27;8.30;;;;;;;;;;5034202;28;20025;-63
2022/10/18 06:10:22;;;;;;;10.23;7.80;;;;;;;;;;5034177;28;20068;-65
2022/10/18 06:12:48;;;;;;;10.45;7.55;;;;;;;;;;5034127;28;20036;-69
2022/10/18 06:15:13;;;;;;;9.75;7.95;;;;;;;;;;5034369;28;20026;-70
2022/10/18 06:17:38;;;;;;;12.10;7.63;;;;;;;;;;5033366;28;20033;-70
2022/10/18 06:20:04;;;;;;;12.80;7.28;;;;;;;;;;5033883;28;20091;-70
2022/10/18 06:22:30;;;;;;;12.45;8.02;;;;;;;;;;5033905;28;20026;-71
2022/10/18 06:24:55;;;;;;;13.02;7.95;;;;;;;;;;5033777;28;20036;-67
2022/10/18 06:27:21;;;;;;;11.98;7.80;;;;;;;;;;5034086;28;20029;-64
2022/10/18 06:29:46;;;;;;;13.68;7.97;;;;;;;;;;5034095;28;20069;-63
2022/10/18 06:32:11;;;;;;;12.43;8.50;;;;;;;;;;5033767;28;20083;-69
2022/10/18 06:34:37;;;;;;;10.77;8.13;;;;;;;;;;5033696;28;20026;-64
2022/10/18 06:37:02;;;;;;;13.23;8.25;;;;;;;;;;5033885;28;20034;-65
2022/10/18 06:39:27;;;;;;;13.43;7.88;;;;;;;;;;5033760;28;20496;-63
2022/10/18 06:41:53;;;;;;;10.50;7.75;;;;;;;;;;5033857;28;20087;-64
2022/10/18 06:44:19;;;;;;;11.95;8.02;;;;;;;;;;5033406;28;20537;-63
2022/10/18 06:46:46;;;;;;;14.15;8.63;;;;;;;;;;5032783;28;20034;-68
2022/10/18 06:49:13;;;;;;;12.45;7.57;;;;;;;;;;5033696;28;20037;-65
2022/10/18 06:51:39;;;;;;;11.43;7.75;;;;;;;;;;5033629;28;20102;-67
2022/10/18 06:54:05;;;;;;;9.35;7.57;;;;;;;;;;5033140;28;20497;-67
2022/10/18 06:56:30;;;;;;;11.52;7.82;;;;;;;;;;5030896;28;20065;-61
2022/10/18 06:58:55;;;;;;;10.95;7.60;;;;;;;;;;5030491;28;20021;-63
2022/10/18 07:01:21;;;;;;;12.40;8.00;;;;;;;;;;5031702;28;20036;-62
2022/10/18 07:03:48;;;;;;;10.70;8.10;;;;;;;;;;5031418;28;20030;-63
2022/10/18 07:06:16;;;;;;;13.55;8.15;;;;;;;;;;5031476;28;20549;-63
2022/10/18 07:08:41;;;;;;;12.82;8.02;;;;;;;;;;5031735;28;20056;-62
2022/10/18 07:11:12;;;;;;;10.60;7.70;;;;;;;;;;5031387;28;20033;-63
2022/10/18 07:13:38;;;;;;;8.70;7.22;;;;;;;;;;5031334;28;20041;-61
2022/10/18 07:16:09;;;;;;;11.13;7.65;;;;;;;;;;5031313;28;20032;-70
2022/10/18 07:18:36;;;;;;;9.05;7.22;;;;;;;;;;5031312;28;20026;-71
2022/10/18 07:21:06;;;;;;;8.85;7.40;;;;;;;;;;5031526;28;20382;-70
2022/10/18 07:23:33;;;;;;;11.75;7.55;;;;;;;;;;5031550;28;20030;-70
2022/10/18 07:26:00;;;;;;;11.25;7.22;;;;;;;;;;5031353;28;20474;-70
2022/10/18 07:28:26;;;;;;;11.93;7.82;;;;;;;;;;5031610;28;20033;-67
2022/10/18 07:30:51;;;;;;;13.63;7.40;;;;;;;;;;5031007;28;20095;-70
2022/10/18 07:33:16;;;;;;;9.82;7.32;;;;;;;;;;5031019;28;20033;-66
2022/10/18 07:35:42;;;;;;;9.48;6.72;;;;;;;;;;5031160;28;20121;-67
2022/10/18 07:38:07;;;;;;;14.02;7.40;;;;;;;;;;5031363;28;20032;-64
2022/10/18 07:40:32;;;;;;;9.35;6.63;;;;;;;;;;5030522;28;20052;-67
2022/10/18 07:42:58;;;;;;;16.15;7.28;;;;;;;;;;5030686;28;20029;-62
2022/10/18 07:45:23;;;;;;;10.95;6.78;;;;;;;;;;5031094;28;20049;-62
2022/10/18 07:47:56;;;;;;;9.88;7.00;;;;;;;;;;5030606;28;20436;-73
2022/10/18 07:50:22;;;;;;;9.63;6.65;;;;;;;;;;5030738;28;20025;-63
2022/10/18 07:52:47;;;;;;;11.85;6.72;;;;;;;;;;5031702;28;20053;-62
2022/10/18 07:55:13;;;;;;;9.32;6.60;;;;;;;;;;5050419;28;20057;-65
2022/10/18 07:57:38;;;;;;;8.90;6.15;;;;;;;;;;5049975;28;20045;-62
2022/10/18 08:00:04;;;;;;;10.38;6.78;;;;;;;;;;5050705;28;20033;-63
2022/10/18 08:02:30;;;;;;;8.93;6.47;;;;;;;;;;5050610;28;20498;-65
2022/10/18 08:04:55;;;;;;;12.85;6.90;;;;;;;;;;5049860;28;20043;-69
2022/10/18 08:07:21;;;;;;;8.93;6.65;;;;;;;;;;5050928;28;20021;-62
2022/10/18 08:09:46;;;;;;;8.43;6.22;;;;;;;;;;5050693;28;20025;-63
2022/10/18 08:12:12;;;;;;;12.18;6.07;;;;;;;;;;5051051;28;20048;-62
2022/10/18 08:14:37;;;;;;;12.40;6.95;;;;;;;;;;5050742;28;20032;-64
2022/10/18 08:17:02;;;;;;;8.50;6.50;;;;;;;;;;5050576;28;20124;-63
2022/10/18 08:19:28;;;;;;;17.08;6.38;;;;;;;;;;5050690;28;20037;-62
2022/10/18 08:21:53;;;;;;;10.82;5.93;;;;;;;;;;5050896;28;20056;-63
2022/10/18 08:24:19;;;;;;;12.15;5.78;;;;;;;;;;5050472;28;20025;-63
2022/10/18 08:26:44;;;;;;;10.30;6.30;;;;;;;;;;5050863;28;20039;-63
2022/10/18 08:29:10;;;;;;;8.55;6.10;;;;;;;;;;5050431;28;20029;-63
2022/10/18 08:31:36;;;;;;;9.95;6.32;;;;;;;;;;5051004;28;20431;-63
2022/10/18 08:34:01;;;;;;;9.23;5.68;;;;;;;;;;5049462;28;20068;-62
2022/10/18 08:36:28;;;;;;;7.25;6.03;;;;;;;;;;5051920;28;20476;-61
2022/10/18 08:38:53;;;;;;;12.55;6.43;;;;;;;;;;5051019;28;20032;-67
2022/10/18 08:41:34;;;;;;;9.45;5.93;;;;;;;;;;5050938;28;20100;-63
2022/10/18 08:44:31;;;;;;;7.03;5.60;;;;;;;;;;5050781;28;20043;-63
2022/10/18 08:47:13;;;;;;;14.30;6.00;;;;;;;;;;5048909;28;20045;-62
2022/10/18 08:49:53;;;;;;;8.23;5.80;;;;;;;;;;5050566;28;20041;-71
2022/10/18 08:52:49;;;;;;;8.50;6.13;;;;;;;;;;5050095;28;20073;-62
2022/10/18 08:55:35;;;;;;;7.68;5.72;;;;;;;;;;5050371;28;20502;-63
2022/10/18 08:58:13;;;;;;;8.30;5.88;;;;;;;;;;5049863;28;20058;-66
2022/10/18 09:00:41;;;;;;;9.98;5.80;;;;;;;;;;5050488;28;20144;-70
2022/10/18 09:03:12;;;;;;;12.40;5.63;;;;;;;;;;5050884;28;20101;-68
2022/10/18 09:05:44;;;;;;;9.35;6.20;;;;;;;;;;5049059;28;20603;-70
2022/10/18 09:08:20;;;;;;;8.77;5.95;;;;;;;;;;5050192;28;20516;-64
2022/10/18 09:11:08;;;;;;;13.20;5.93;;;;;;;;;;5054402;28;20060;-63
2022/10/18 09:13:57;;;;;;;7.20;5.50;;;;;;;;;;5052404;28;20037;-64
2022/10/18 09:17:01;;;;;;;8.07;5.63;;;;;;;;;;5053455;28;20042;-73
2022/10/18 09:19:47;;;;;;;7.97;5.53;;;;;;;;;;5042026;28;20114;-64
2022/10/18 09:22:16;;;;;;;17.95;5.60;;;;;;;;;;5053783;28;20032;-63
2022/10/18 09:24:54;;;;;;;12.73;5.95;;;;;;;;;;5053699;28;20029;-64
2022/10/18 09:27:26;;;;;;;6.30;5.20;;;;;;;;;;5053712;28;20436;-63
2022/10/18 09:30:07;;;;;;;9.88;5.75;;;;;;;;;;5053292;28;20499;-64
2022/10/18 09:32:51;;;;;;;8.93;5.97;;;;;;;;;;5053323;28;20519;-65
2022/10/18 09:35:24;;;;;;;9.57;6.05;;;;;;;;;;5055009;28;20029;-70
2022/10/18 09:37:54;;;;;;;7.85;5.32;;;;;;;;;;5053081;28;20457;-64
2022/10/18 09:40:35;;;;;;;8.60;5.35;;;;;;;;;;5053158;28;20491;-73
2022/10/18 09:43:07;;;;;;;9.82;5.35;;;;;;;;;;5053366;28;20036;-70
2022/10/18 09:45:40;;;;;;;8.55;5.40;;;;;;;;;;5053930;28;20067;-64
2022/10/18 09:48:28;;;;;;;11.50;5.30;;;;;;;;;;5053216;28;20114;-64
2022/10/18 09:50:59;;;;;;;8.18;5.47;;;;;;;;;;5051627;28;20033;-64
2022/10/18 09:53:49;;;;;;;6.53;4.82;;;;;;;;;;5053337;28;20480;-65
2022/10/18 09:56:21;;;;;;;6.43;4.93;;;;;;;;;;5053614;28;20021;-63
2022/10/18 09:58:50;;;;;;;6.38;4.43;;;;;;;;;;5055055;28;20087;-65
2022/10/18 10:01:20;;;;;;;9.65;5.22;;;;;;;;;;5053473;28;20037;-64
2022/10/18 10:03:46;;;;;;;7.75;4.72;;;;;;;;;;5052851;28;20056;-68
2022/10/18 10:06:11;;;;;;;8.95;4.82;;;;;;;;;;5052303;28;20063;-64
2022/10/18 10:08:41;;;;;;;11.13;4.97;;;;;;;;;;5052335;28;20036;-64
2022/10/18 10:11:45;;;;;;;12.90;5.30;;;;;;;;;;5052239;28;20067;-73
2022/10/18 10:14:24;;;;;;;8.90;4.90;;;;;;;;;;5050812;28;20044;-64
2022/10/18 10:17:02;;;;;;;6.95;4.35;;;;;;;;;;5052368;28;20028;-67
2022/10/18 10:19:31;;;;;;;8.82;4.50;;;;;;;;;;5052661;28;20037;-65
2022/10/18 10:22:02;;;;;;;9.35;5.10;;;;;;;;;;5052787;28;20039;-64
2022/10/18 10:24:49;;;;;;;5.90;4.53;;;;;;;;;;5052292;28;20119;-65
2022/10/18 10:27:30;;;;;;;6.60;4.57;;;;;;;;;;5052442;28;20057;-68
2022/10/18 10:30:03;;;;;;;6.57;4.80;;;;;;;;;;5051760;28;20107;-64
2022/10/18 10:32:40;;;;;;;5.63;4.47;;;;;;;;;;5050056;28;20036;-64
2022/10/18 10:35:30;;;;;;;10.18;4.97;;;;;;;;;;5049305;28;20025;-69
2022/10/18 10:37:56;;;;;;;5.63;4.47;;;;;;;;;;5051112;28;20397;-64
2022/10/18 10:40:24;;;;;;;6.05;4.28;;;;;;;;;;5052834;28;20046;-71
2022/10/18 10:43:11;;;;;;;9.18;4.43;;;;;;;;;;5052219;28;20032;-67
2022/10/18 10:45:40;;;;;;;6.18;4.47;;;;;;;;;;5051211;28;20039;-63
2022/10/18 10:48:16;;;;;;;9.82;4.65;;;;;;;;;;5051350;28;20029;-64
2022/10/18 10:50:58;;;;;;;7.80;4.85;;;;;;;;;;5051497;28;20040;-68
2022/10/18 10:53:31;;;;;;;7.80;4.43;;;;;;;;;;5052018;28;20035;-65
2022/10/18 10:55:58;;;;;;;7.70;4.35;;;;;;;;;;5051066;28;20099;-65
2022/10/18 10:58:26;;;;;;;6.40;4.38;;;;;;;;;;5048269;28;20049;-63
2022/10/18 11:00:51;;;;;;;6.15;4.43;;;;;;;;;;5051806;28;20033;-72
2022/10/18 11:03:19;;;;;;;11.60;4.28;;;;;;;;;;5052586;28;20487;-63
2022/10/18 11:05:54;;;;;;;7.68;4.18;;;;;;;;;;5050823;28;20082;-70
2022/10/18 11:08:23;;;;;;;7.47;3.90;;;;;;;;;;5051499;28;20027;-72
2022/10/18 11:11:00;;;;;;;5.63;4.05;;;;;;;;;;5051765;28;20028;-65
2022/10/18 11:13:49;;;;;;;8.38;4.15;;;;;;;;;;5041571;28;20740;-66
2022/10/18 11:16:33;;;;;;;6.68;4.40;;;;;;;;;;5051766;28;20025;-66
2022/10/18 11:19:01;;;;;;;6.53;4.00;;;;;;;;;;5051554;28;20025;-64
2022/10/18 11:21:30;;;;;;;8.07;4.30;;;;;;;;;;5051519;28;20111;-64
2022/10/18 11:23:56;;;;;;;11.07;4.65;;;;;;;;;;5051276;28;20500;-65
2022/10/18 11:26:36;;;;;;;5.75;4.03;;;;;;;;;;5041230;28;20029;-65
2022/10/18 11:29:23;;;;;;;10.95;4.60;;;;;;;;;;5031036;28;20069;-69
2022/10/18 11:32:09;;;;;;;10.80;4.25;;;;;;;;;;5030903;28;20068;-67
2022/10/18 11:34:54;;;;;;;6.88;3.75;;;;;;;;;;5031201;28;20029;-63
2022/10/18 11:37:50;;;;;;;5.25;4.10;;;;;;;;;;5031131;28;20021;-70
2022/10/18 11:40:28;;;;;;;9.40;4.18;;;;;;;;;;5030891;28;20038;-69
2022/10/18 11:43:38;;;;;;;5.70;4.05;;;;;;;;;;5031280;28;20187;-65
2022/10/18 11:46:22;;;;;;;6.28;4.32;;;;;;;;;;5031525;28;20374;-64
2022/10/18 11:49:26;;;;;;;7.53;3.95;;;;;;;;;;5031204;28;20022;-70
2022/10/18 11:52:25;;;;;;;6.63;4.15;;;;;;;;;;5050137;28;20111;-66
2022/10/18 11:55:02;;;;;;;6.93;4.00;;;;;;;;;;5046268;28;20035;-68
2022/10/18 11:57:42;;;;;;;5.30;3.60;;;;;;;;;;5050622;28;20045;-68
2022/10/18 12:00:16;;;;;;;6.93;3.97;;;;;;;;;;5050773;28;20434;-67
2022/10/18 12:02:44;;;;;;;6.53;3.85;;;;;;;;;;5050749;28;20157;-68
2022/10/18 12:05:11;;;;;;;8.35;3.60;;;;;;;;;;5054159;28;20126;-72
2022/10/18 12:07:42;;;;;;;5.25;3.72;;;;;;;;;;5053834;28;20044;-68
2022/10/18 12:10:14;;;;;;;9.07;3.83;;;;;;;;;;5054514;28;20044;-68
2022/10/18 12:12:53;;;;;;;6.03;3.78;;;;;;;;;;5052924;28;20032;-70
2022/10/18 12:15:24;;;;;;;7.95;3.50;;;;;;;;;;5052223;28;20028;-68
2022/10/18 12:17:53;;;;;;;10.13;3.60;;;;;;;;;;5052138;28;20060;-68
2022/10/18 12:20:41;;;;;;;5.55;3.70;;;;;;;;;;5050425;28;20040;-68
2022/10/18 12:23:35;;;;;;;5.63;4.15;;;;;;;;;;5051514;28;20029;-67
2022/10/18 12:26:03;;;;;;;8.02;3.83;;;;;;;;;;5052553;28;20056;-66
2022/10/18 12:28:48;;;;;;;4.20;3.40;;;;;;;;;;5052648;28;20044;-66
2022/10/18 12:31:25;;;;;;;4.45;3.50;;;;;;;;;;5049071;28;20496;-71
2022/10/18 12:33:55;;;;;;;8.52;3.70;;;;;;;;;;5050619;28;20036;-66
2022/10/18 12:36:21;;;;;;;5.85;3.25;;;;;;;;;;5051726;28;20021;-68
2022/10/18 12:38:52;;;;;;;6.07;3.45;;;;;;;;;;5050988;28;20366;-69
2022/10/18 12:41:30;;;;;;;5.68;3.53;;;;;;;;;;5051077;28;20024;-66
2022/10/18 12:44:07;;;;;;;9.68;3.30;;;;;;;;;;5053193;28;20044;-68
2022/10/18 12:46:49;;;;;;;7.30;3.33;;;;;;;;;;5055310;28;20021;-66
2022/10/18 12:49:22;;;;;;;4.45;3.08;;;;;;;;;;5055234;28;20057;-66
2022/10/18 12:51:53;;;;;;;6.28;3.40;;;;;;;;;;5056754;28;20025;-68
2022/10/18 12:54:36;;;;;;;7.43;3.65;;;;;;;;;;5058775;28;20032;-70
2022/10/18 12:57:03;;;;;;;3.85;3.35;;;;;;;;;;5056264;28;20021;-66
2022/10/18 12:59:29;;;;;;;3.80;3.38;;;;;;;;;;5053603;28;20497;-65
2022/10/18 13:01:54;;;;;;;4.03;3.10;;;;;;;;;;5050104;28;20087;-65
2022/10/18 13:04:25;;;;;;;4.45;3.97;;;;;;;;;;5054011;28;20404;-66
2022/10/18 13:07:17;;;;;;;5.97;3.60;;;;;;;;;;5057547;28;20040;-67
2022/10/18 13:10:09;;;;;;;4.75;3.30;;;;;;;;;;5056042;28;20051;-66
2022/10/18 13:12:50;;;;;;;7.40;3.50;;;;;;;;;;5040796;28;20063;-69
2022/10/18 13:15:59;;;;;;;4.57;3.40;;;;;;;;;;5059050;28;20037;-72
2022/10/18 13:18:43;;;;;;;4.22;3.42;;;;;;;;;;5057790;28;20071;-68
2022/10/18 13:21:18;;;;;;;4.10;3.70;;;;;;;;;;5058945;28;20099;-68
2022/10/18 13:24:09;;;;;;;10.40;3.70;;;;;;;;;;5058981;28;20036;-68
2022/10/18 13:26:46;;;;;;;4.70;3.42;;;;;;;;;;5054258;28;20028;-69
2022/10/18 13:29:30;;;;;;;6.63;3.78;;;;;;;;;;5055397;28;20468;-74
2022/10/18 13:32:20;;;;;;;5.53;3.47;;;;;;;;;;5054299;28;20024;-68
2022/10/18 13:34:45;;;;;;;;;;;;;;;;;;5054631;28;20037;-68
2022/10/18 13:37:10;;;;;;;7.18;3.60;;;;;;;;;;5054735;28;19936;-67
2022/10/18 13:39:38;;;;;;;5.43;3.42;;;;;;;;;;5052800;28;20090;-75
2022/10/18 13:42:13;;;;;;;5.13;3.33;;;;;;;;;;5049910;28;20032;-68
2022/10/18 13:44:41;;;;;;;8.10;3.55;;;;;;;;;;5053372;28;20021;-68
2022/10/18 13:47:07;;;;;;;7.65;3.72;;;;;;;;;;5053570;28;20477;-67
2022/10/18 13:49:38;;;;;;;7.72;3.90;;;;;;;;;;5052986;28;20033;-69
2022/10/18 13:52:12;;;;;;;4.53;3.28;;;;;;;;;;5054455;28;20036;-68
2022/10/18 13:55:07;;;;;;;8.27;3.50;;;;;;;;;;5053146;28;20032;-69
2022/10/18 13:58:20;;;;;;;8.25;3.90;;;;;;;;;;5031155;28;20706;-69
2022/10/18 14:01:04;;;;;;;10.85;3.60;;;;;;;;;;5048437;28;20041;-67
2022/10/18 14:03:48;;;;;;;5.32;3.85;;;;;;;;;;5053089;28;20682;-69
2022/10/18 14:06:27;;;;;;;3.88;3.45;;;;;;;;;;5056863;28;20036;-70
2022/10/18 14:09:01;;;;;;;3.88;3.30;;;;;;;;;;5053339;28;20580;-73
2022/10/18 14:11:33;;;;;;;6.43;3.53;;;;;;;;;;5058858;28;20033;-66
2022/10/18 14:14:12;;;;;;;4.60;3.75;;;;;;;;;;5059027;28;20638;-76
2022/10/18 14:17:00;;;;;;;7.18;3.40;;;;;;;;;;5062677;28;20029;-75
2022/10/18 14:19:53;;;;;;;4.30;3.70;;;;;;;;;;5059966;28;20029;-70
2022/10/18 14:22:27;;;;;;;6.13;3.72;;;;;;;;;;5055361;28;20032;-72
2022/10/18 14:24:57;;;;;;;5.10;3.40;;;;;;;;;;5052645;28;20032;-69
2022/10/18 14:27:31;;;;;;;6.15;3.35;;;;;;;;;;5052436;28;20096;-71
2022/10/18 14:30:19;;;;;;;10.68;3.70;;;;;;;;;;5052865;28;20393;-71
2022/10/18 14:32:49;;;;;;;11.13;3.92;;;;;;;;;;5052668;28;20420;-67
2022/10/18 14:35:24;;;;;;;7.70;3.88;;;;;;;;;;5052784;28;20420;-67
2022/10/18 14:37:53;;;;;;;5.30;3.78;;;;;;;;;;5052388;28;20035;-71
2022/10/18 14:40:29;;;;;;;3.95;3.22;;;;;;;;;;5052411;28;20033;-64
2022/10/18 14:42:55;;;;;;;5.35;3.40;;;;;;;;;;5052678;28;20025;-65
2022/10/18 14:45:22;;;;;;;4.30;3.53;;;;;;;;;;5051477;28;20027;-65
2022/10/18 14:47:48;;;;;;;5.50;3.78;;;;;;;;;;5051239;28;20497;-64
2022/10/18 14:50:22;;;;;;;4.25;3.83;;;;;;;;;;5052242;28;20060;-67
2022/10/18 14:52:47;;;;;;;6.63;3.67;;;;;;;;;;5053599;28;20033;-61
2022/10/18 14:55:27;;;;;;;8.25;3.47;;;;;;;;;;5052095;28;20366;-65
2022/10/18 14:57:53;;;;;;;5.15;3.65;;;;;;;;;;5051531;28;20734;-68
2022/10/18 15:00:24;;;;;;;4.18;3.70;;;;;;;;;;5052356;28;20033;-65
2022/10/18 15:02:50;;;;;;;6.82;3.88;;;;;;;;;;5052005;28;20049;-64
2022/10/18 15:05:15;;;;;;;5.07;3.45;;;;;;;;;;5051940;28;20079;-64